createdAt,value
2016-05-12T00:00:03.445Z,62.17
2016-05-12T00:01:03.620Z,62.26
2016-05-12T00:02:03.419Z,61.98
2016-05-12T00:03:03.406Z,62.84
2016-05-12T00:04:03.394Z,62.14
2016-05-12T00:05:03.380Z,62.62
2016-05-12T00:06:03.367Z,61.76
2016-05-12T00:07:03.369Z,62.62
2016-05-12T00:08:03.357Z,62.43
2016-05-12T00:09:03.344Z,63.1
2016-05-12T00:10:03.174Z,62.33
2016-05-12T00:11:03.319Z,62.04
2016-05-12T00:12:03.305Z,63.19
2016-05-12T00:13:03.293Z,62.33
2016-05-12T00:14:03.296Z,61.85
2016-05-12T00:15:03.282Z,61.94
2016-05-12T00:16:03.598Z,62.04
2016-05-12T00:17:03.256Z,62.71
2016-05-12T00:18:03.243Z,62.52
2016-05-12T00:19:03.090Z,61.94
2016-05-12T00:20:03.062Z,63.57
2016-05-12T00:21:03.204Z,62.62
2016-05-12T00:22:03.207Z,63.39
2016-05-12T00:23:03.053Z,63.19
2016-05-12T00:24:03.182Z,63.29
2016-05-12T00:25:03.169Z,63.19
2016-05-12T00:26:03.156Z,63.29
2016-05-12T00:27:02.986Z,62.81
2016-05-12T00:28:02.973Z,62.81
2016-05-12T00:29:02.975Z,63.1
2016-05-12T00:30:03.119Z,62.81
2016-05-12T00:31:03.106Z,63.26
2016-05-12T00:32:03.094Z,63.67
2016-05-12T00:33:03.081Z,63.29
2016-05-12T00:34:03.067Z,62.81
2016-05-12T00:35:03.055Z,62.97
2016-05-12T00:36:03.042Z,64.05
2016-05-12T00:37:03.029Z,64.05
2016-05-12T00:38:03.016Z,62.87
2016-05-12T00:39:03.019Z,63.26
2016-05-12T00:40:03.006Z,63.29
2016-05-12T00:41:03.196Z,63.16
2016-05-12T00:42:02.980Z,64.05
2016-05-12T00:43:02.966Z,63.45
2016-05-12T00:44:02.969Z,63.35
2016-05-12T00:45:02.956Z,62.97
2016-05-12T00:46:03.037Z,63.45
2016-05-12T00:47:02.932Z,64.59
2016-05-12T00:48:02.918Z,64.31
2016-05-12T00:49:02.905Z,64.31
2016-05-12T00:50:02.892Z,63.35
2016-05-12T00:51:02.879Z,64.88
2016-05-12T00:52:02.865Z,64.22
2016-05-12T00:53:02.853Z,63.45
2016-05-12T00:54:02.840Z,63.35
2016-05-12T00:55:02.843Z,63.16
2016-05-12T00:56:02.830Z,63.26
2016-05-12T00:57:02.661Z,63.26
2016-05-12T00:58:02.804Z,63.06
2016-05-12T00:59:02.792Z,63.06
2016-05-12T01:00:02.778Z,62.77
2016-05-12T01:01:02.764Z,63.06
2016-05-12T01:02:02.956Z,63.16
2016-05-12T01:03:02.756Z,64.31
2016-05-12T01:04:02.742Z,63.54
2016-05-12T01:05:02.713Z,64.4
2016-05-12T01:06:02.732Z,64.02
2016-05-12T01:07:02.547Z,64.31
2016-05-12T01:08:02.691Z,63.93
2016-05-12T01:09:02.678Z,64.02
2016-05-12T01:10:02.664Z,64.02
2016-05-12T01:11:02.652Z,63.93
2016-05-12T01:12:02.638Z,63.64
2016-05-12T01:13:02.626Z,64.02
2016-05-12T01:14:02.613Z,64.02
2016-05-12T01:15:02.616Z,64.12
2016-05-12T01:16:02.603Z,63.83
2016-05-12T01:17:02.590Z,64.59
2016-05-12T01:18:02.576Z,64.18
2016-05-12T01:19:02.407Z,64.47
2016-05-12T01:20:02.551Z,64.47
2016-05-12T01:21:02.537Z,64.59
2016-05-12T01:22:02.541Z,64.28
2016-05-12T01:23:02.371Z,64.69
2016-05-12T01:24:02.499Z,64.85
2016-05-12T01:25:02.487Z,64.85
2016-05-12T01:26:02.473Z,65.17
2016-05-12T01:27:02.507Z,64.95
2016-05-12T01:28:02.462Z,64.59
2016-05-12T01:29:02.450Z,65.23
2016-05-12T01:30:02.281Z,65.04
2016-05-12T01:31:02.268Z,65.26
2016-05-12T01:32:02.255Z,65.42
2016-05-12T01:33:02.398Z,64.69
2016-05-12T01:34:02.400Z,65.23
2016-05-12T01:35:02.372Z,64.22
2016-05-12T01:36:02.375Z,64.69
2016-05-12T01:37:02.362Z,64.5
2016-05-12T01:38:02.194Z,64.31
2016-05-12T01:39:02.336Z,64.31
2016-05-12T01:40:02.324Z,64.79
2016-05-12T01:41:02.310Z,63.83
2016-05-12T01:42:02.298Z,63.73
2016-05-12T01:43:02.285Z,63.83
2016-05-12T01:44:02.271Z,64.12
2016-05-12T01:45:02.258Z,63.83
2016-05-12T01:46:02.261Z,64.22
2016-05-12T01:47:02.249Z,64.4
2016-05-12T01:48:02.235Z,63.06
2016-05-12T01:49:02.223Z,64.22
2016-05-12T01:50:02.210Z,63.83
2016-05-12T01:51:02.196Z,64.31
2016-05-12T01:52:02.184Z,63.83
2016-05-12T01:53:02.171Z,64.02
2016-05-12T01:54:02.157Z,63.45
2016-05-12T01:55:02.176Z,63.45
2016-05-12T01:56:02.148Z,63.35
2016-05-12T01:57:02.135Z,63.35
2016-05-12T01:58:02.122Z,64.02
2016-05-12T01:59:02.109Z,63.64
2016-05-12T02:00:02.096Z,64.02
2016-05-12T02:01:02.083Z,63.26
2016-05-12T02:02:02.069Z,63.45
2016-05-12T02:03:02.056Z,63.45
2016-05-12T02:04:02.045Z,63.54
2016-05-12T02:05:02.031Z,63.54
2016-05-12T02:06:02.018Z,63.35
2016-05-12T02:07:02.021Z,63.83
2016-05-12T02:08:01.992Z,64.02
2016-05-12T02:09:01.980Z,64.31
2016-05-12T02:10:01.982Z,63.93
2016-05-12T02:11:01.969Z,64.4
2016-05-12T02:12:01.956Z,63.8
2016-05-12T02:13:01.943Z,63.89
2016-05-12T02:14:01.774Z,64.59
2016-05-12T02:15:01.918Z,64.5
2016-05-12T02:16:01.904Z,63.89
2016-05-12T02:17:01.892Z,63.23
2016-05-12T02:18:01.879Z,63.42
2016-05-12T02:19:01.865Z,63.8
2016-05-12T02:20:01.853Z,63.89
2016-05-12T02:21:01.840Z,63.89
2016-05-12T02:22:01.843Z,63.51
2016-05-12T02:23:01.829Z,63.03
2016-05-12T02:24:01.660Z,63.32
2016-05-12T02:25:01.804Z,64.66
2016-05-12T02:26:01.791Z,64.47
2016-05-12T02:27:01.778Z,64.47
2016-05-12T02:28:01.609Z,64.95
2016-05-12T02:29:01.751Z,64.66
2016-05-12T02:30:01.739Z,65.14
2016-05-12T02:31:01.726Z,64.85
2016-05-12T02:32:01.714Z,65.33
2016-05-12T02:33:01.717Z,64.56
2016-05-12T02:34:01.828Z,64.85
2016-05-12T02:35:01.705Z,64.53
2016-05-12T02:36:01.521Z,65.42
2016-05-12T02:37:01.664Z,64.91
2016-05-12T02:38:01.650Z,64.75
2016-05-12T02:39:01.639Z,64.82
2016-05-12T02:40:01.625Z,64.91
2016-05-12T02:41:01.659Z,64.53
2016-05-12T02:42:01.616Z,64.53
2016-05-12T02:43:01.618Z,65.2
2016-05-12T02:44:01.589Z,65.68
2016-05-12T02:45:01.560Z,65.97
2016-05-12T02:46:01.563Z,65.01
2016-05-12T02:47:01.550Z,65.58
2016-05-12T02:48:01.522Z,65.01
2016-05-12T02:49:01.509Z,65.97
2016-05-12T02:50:01.527Z,66.54
2016-05-12T02:51:01.577Z,65.2
2016-05-12T02:52:01.486Z,65.77
2016-05-12T02:53:01.473Z,65.87
2016-05-12T02:54:01.460Z,65.68
2016-05-12T02:55:01.446Z,65.87
2016-05-12T02:56:01.434Z,65.87
2016-05-12T02:57:01.264Z,65.97
2016-05-12T02:58:01.408Z,65.58
2016-05-12T02:59:01.396Z,66.06
2016-05-12T03:00:01.382Z,65.48
2016-05-12T03:01:01.417Z,65.97
2016-05-12T03:02:01.372Z,65.97
2016-05-12T03:03:01.343Z,65.3
2016-05-12T03:04:01.345Z,65.11
2016-05-12T03:05:01.318Z,65.01
2016-05-12T03:06:01.164Z,65.3
2016-05-12T03:07:01.308Z,66.16
2016-05-12T03:08:01.294Z,65.48
2016-05-12T03:09:01.125Z,65.39
2016-05-12T03:10:01.269Z,65.2
2016-05-12T03:11:01.256Z,65.3
2016-05-12T03:12:01.242Z,64.82
2016-05-12T03:13:01.230Z,65.3
2016-05-12T03:14:01.217Z,65.39
2016-05-12T03:15:01.204Z,64.53
2016-05-12T03:16:01.191Z,65.01
2016-05-12T03:17:01.209Z,65.2
2016-05-12T03:18:01.166Z,65.58
2016-05-12T03:19:01.152Z,64.91
2016-05-12T03:20:01.139Z,64.91
2016-05-12T03:21:01.142Z,64.53
2016-05-12T03:22:01.129Z,64.62
2016-05-12T03:23:01.115Z,64.53
2016-05-12T03:24:01.103Z,64.62
2016-05-12T03:25:01.074Z,64.62
2016-05-12T03:26:01.062Z,65.2
2016-05-12T03:27:01.064Z,65.97
2016-05-12T03:28:01.051Z,65.68
2016-05-12T03:29:01.038Z,66.06
2016-05-12T03:30:01.025Z,66.16
2016-05-12T03:31:00.856Z,66.73
2016-05-12T03:32:01.000Z,66.63
2016-05-12T03:33:00.987Z,66.06
2016-05-12T03:34:00.973Z,65.87
2016-05-12T03:35:00.961Z,66.06
2016-05-12T03:36:00.947Z,66.44
2016-05-12T03:37:00.934Z,67.69
2016-05-12T03:38:00.922Z,66.73
2016-05-12T03:39:00.909Z,66.92
2016-05-12T03:40:00.897Z,67.21
2016-05-12T03:41:00.899Z,67.21
2016-05-12T03:42:00.885Z,67.02
2016-05-12T03:43:00.700Z,66.73
2016-05-12T03:44:00.860Z,67.4
2016-05-12T03:45:00.847Z,66.63
2016-05-12T03:46:00.833Z,66.35
2016-05-12T03:47:00.665Z,66.63
2016-05-12T03:48:00.808Z,66.44
2016-05-12T03:49:00.780Z,66.54
2016-05-12T03:50:00.798Z,66.54
2016-05-12T03:51:00.769Z,66.92
2016-05-12T03:52:00.600Z,66.83
2016-05-12T03:53:00.744Z,66.63
2016-05-12T03:54:00.730Z,66.83
2016-05-12T03:55:00.733Z,66.73
2016-05-12T03:56:00.704Z,66.16
2016-05-12T03:57:00.692Z,66.83
2016-05-12T03:58:00.679Z,66.63
2016-05-12T03:59:00.666Z,66.44
2016-05-12T04:00:00.669Z,67.11
2016-05-12T04:01:00.640Z,67.49
2016-05-12T04:02:00.627Z,67.11
2016-05-12T04:03:00.614Z,67.3
2016-05-12T04:04:00.617Z,67.69
2016-05-12T04:05:00.604Z,67.21
2016-05-12T04:06:00.576Z,66.92
2016-05-12T04:07:00.406Z,67.49
2016-05-12T04:08:00.565Z,67.4
2016-05-12T04:09:00.552Z,67.21
2016-05-12T04:10:00.523Z,67.78
2016-05-12T04:11:00.511Z,67.3
2016-05-12T04:12:00.514Z,67.11
2016-05-12T04:13:00.500Z,67.49
2016-05-12T04:14:00.488Z,67.49
2016-05-12T04:15:00.474Z,67.3
2016-05-12T04:16:00.461Z,68.07
2016-05-12T04:17:00.449Z,67.69
2016-05-12T04:18:00.451Z,68.07
2016-05-12T04:19:00.439Z,67.88
2016-05-12T04:20:00.410Z,67.88
2016-05-12T04:21:00.397Z,67.49
2016-05-12T04:22:00.384Z,67.59
2016-05-12T04:23:00.387Z,68.55
2016-05-12T04:24:00.357Z,67.59
2016-05-12T04:25:00.345Z,68.16
2016-05-12T04:26:00.348Z,68.45
2016-05-12T04:27:00.351Z,67.69
2016-05-12T04:28:00.321Z,67.78
2016-05-12T04:29:00.309Z,67.3
2016-05-12T04:30:00.296Z,66.92
2016-05-12T04:31:00.284Z,67.4
2016-05-12T04:32:00.473Z,66.73
2016-05-12T04:33:00.257Z,67.11
2016-05-12T04:34:00.245Z,67.59
2016-05-12T04:35:00.231Z,67.02
2016-05-12T04:36:00.234Z,66.63
2016-05-12T04:37:00.408Z,66.63
2016-05-12T04:38:00.193Z,66.44
2016-05-12T04:39:00.040Z,66.92
2016-05-12T04:40:00.183Z,66.76
2016-05-12T04:41:00.356Z,66.86
2016-05-12T04:42:00.156Z,66.47
2016-05-12T04:43:00.127Z,66.57
2016-05-12T04:44:00.147Z,65.81
2016-05-12T04:45:00.103Z,66.96
2016-05-12T04:46:00.089Z,65.61
2016-05-12T04:47:00.389Z,66.09
2016-05-12T04:48:00.079Z,66.28
2016-05-12T04:49:00.050Z,66.28
2016-05-12T04:50:00.037Z,66.47
2016-05-12T04:51:00.041Z,65.81
2016-05-12T04:52:00.027Z,66.09
2016-05-12T04:52:59.858Z,66.09
2016-05-12T04:54:00.001Z,66.19
2016-05-12T04:54:59.988Z,65.71
2016-05-12T04:56:00.038Z,66.57
2016-05-12T04:56:59.979Z,65.81
2016-05-12T04:57:59.949Z,66
2016-05-12T04:58:59.952Z,66.19
2016-05-12T04:59:59.940Z,66.09
2016-05-12T05:00:59.754Z,65.81
2016-05-12T05:01:59.898Z,66.09
2016-05-12T05:02:59.884Z,66.41
2016-05-12T05:03:59.873Z,65.94
2016-05-12T05:04:59.875Z,65.94
2016-05-12T05:05:59.690Z,65.55
2016-05-12T05:06:59.834Z,65.55
2016-05-12T05:07:59.820Z,65.84
2016-05-12T05:08:59.823Z,65.45
2016-05-12T05:09:59.809Z,66.13
2016-05-12T05:10:59.797Z,65.84
2016-05-12T05:12:02.597Z,65.36
2016-05-12T05:12:59.772Z,65.36
2016-05-12T05:13:59.758Z,65.65
2016-05-12T05:14:59.745Z,65.36
2016-05-12T05:15:59.732Z,65.08
2016-05-12T05:16:59.578Z,65.36
2016-05-12T05:17:59.706Z,65.26
2016-05-12T05:18:59.709Z,65.26
2016-05-12T05:19:59.696Z,65.17
2016-05-12T05:20:59.527Z,64.5
2016-05-12T05:21:59.671Z,65.17
2016-05-12T05:22:59.657Z,65.26
2016-05-12T05:23:59.645Z,64.79
2016-05-12T05:24:59.632Z,65.26
2016-05-12T05:25:59.619Z,65.45
2016-05-12T05:26:59.621Z,66.22
2016-05-12T05:27:59.593Z,65.58
2016-05-12T05:28:59.579Z,64.63
2016-05-12T05:29:59.567Z,65.01
2016-05-12T05:30:59.554Z,65.3
2016-05-12T05:31:59.432Z,65.3
2016-05-12T05:32:59.528Z,65.39
2016-05-12T05:33:59.374Z,65.39
2016-05-12T05:34:59.362Z,65.49
2016-05-12T05:35:59.504Z,65.58
2016-05-12T05:36:59.492Z,65.11
2016-05-12T05:37:59.322Z,65.3
2016-05-12T05:38:59.467Z,65.11
2016-05-12T05:39:59.454Z,65.3
2016-05-12T05:40:59.440Z,65.3
2016-05-12T05:41:59.428Z,65.39
2016-05-12T05:42:59.414Z,65.2
2016-05-12T05:43:59.244Z,65.3
2016-05-12T05:44:59.389Z,65.01
2016-05-12T05:45:59.391Z,65.11
2016-05-12T05:46:59.378Z,65.3
2016-05-12T05:47:59.381Z,64.85
2016-05-12T05:48:59.352Z,65.14
2016-05-12T05:49:59.339Z,64.95
2016-05-12T05:50:59.342Z,64.85
2016-05-12T05:51:59.313Z,64.37
2016-05-12T05:52:59.144Z,64.37
2016-05-12T05:53:59.302Z,63.99
2016-05-12T05:54:59.274Z,64.95
2016-05-12T05:55:59.278Z,64.76
2016-05-12T05:56:59.265Z,64.66
2016-05-12T05:57:59.251Z,64.85
2016-05-12T05:58:59.238Z,65.33
2016-05-12T05:59:59.241Z,64.85
2016-05-12T06:00:59.213Z,64.66
2016-05-12T06:02:00.043Z,64.47
2016-05-12T06:02:59.202Z,64.69
2016-05-12T06:03:59.034Z,65.08
2016-05-12T06:04:59.177Z,64.12
2016-05-12T06:05:59.164Z,64.59
2016-05-12T06:06:59.167Z,64.98
2016-05-12T06:07:59.153Z,64.98
2016-05-12T06:08:58.968Z,64.02
2016-05-12T06:09:59.111Z,63.64
2016-05-12T06:10:59.115Z,63.83
2016-05-12T06:11:59.101Z,64.12
2016-05-12T06:12:59.089Z,64.02
2016-05-12T06:13:59.075Z,62.77
2016-05-12T06:14:59.063Z,63.64
2016-05-12T06:15:59.050Z,64.4
2016-05-12T06:16:59.053Z,63.06
2016-05-12T06:17:59.039Z,63.64
2016-05-12T06:18:59.027Z,64.12
2016-05-12T06:19:59.014Z,63.06
2016-05-12T06:20:59.000Z,63.45
2016-05-12T06:21:58.988Z,63.35
2016-05-12T06:22:58.975Z,63.19
2016-05-12T06:23:58.962Z,63.38
2016-05-12T06:24:58.808Z,63.29
2016-05-12T06:25:58.796Z,62.62
2016-05-12T06:26:58.939Z,62.23
2016-05-12T06:27:58.926Z,62.52
2016-05-12T06:28:58.913Z,61.85
2016-05-12T06:29:58.900Z,62.04
2016-05-12T06:30:58.902Z,61.27
2016-05-12T06:31:59.405Z,61.59
2016-05-12T06:32:58.892Z,62.07
2016-05-12T06:33:58.865Z,61.98
2016-05-12T06:34:58.867Z,62.36
2016-05-12T06:35:58.853Z,62.07
2016-05-12T06:36:58.826Z,61.49
2016-05-12T06:37:58.828Z,60.44
2016-05-12T06:38:58.815Z,60.92
2016-05-12T06:39:58.646Z,61.21
2016-05-12T06:40:58.993Z,61.11
2016-05-12T06:41:58.776Z,60.15
2016-05-12T06:42:58.779Z,60.35
2016-05-12T06:43:58.766Z,60.57
2016-05-12T06:44:58.753Z,60.92
2016-05-12T06:45:58.756Z,61.62
2016-05-12T06:46:58.742Z,60.28
2016-05-12T06:47:58.730Z,59.12
2016-05-12T06:48:58.560Z,58.84
2016-05-12T06:49:58.746Z,60.38
2016-05-12T06:50:58.777Z,58.36
2016-05-12T06:51:58.806Z,58.36
2016-05-12T06:52:58.852Z,57.4
2016-05-12T06:53:58.883Z,58.45
2016-05-12T06:54:58.885Z,58
2016-05-12T06:55:58.888Z,58.48
2016-05-12T06:56:58.905Z,57.43
2016-05-12T06:57:58.908Z,57.04
2016-05-12T06:58:58.910Z,56.56
2016-05-12T06:59:58.902Z,56.66
2016-05-12T07:00:58.911Z,56.66
2016-05-12T07:01:59.137Z,57.04
2016-05-12T07:02:58.896Z,56.56
2016-05-12T07:03:58.888Z,56.95
2016-05-12T07:04:58.877Z,56.68
2016-05-12T07:05:58.882Z,56.95
2016-05-12T07:06:58.856Z,57.14
2016-05-12T07:07:58.860Z,56.88
2016-05-12T07:08:58.849Z,57.36
2016-05-12T07:09:58.837Z,57.36
2016-05-12T07:10:58.684Z,56.78
2016-05-12T07:11:58.828Z,56.11
2016-05-12T07:12:58.815Z,56.68
2016-05-12T07:13:58.819Z,55.05
2016-05-12T07:14:58.807Z,54.47
2016-05-12T07:15:58.794Z,53.42
2016-05-12T07:16:59.188Z,51.21
2016-05-12T07:17:58.769Z,52.1
2016-05-12T07:18:58.772Z,50.95
2016-05-12T07:19:58.759Z,50.27
2016-05-12T07:20:58.745Z,50.66
2016-05-12T07:21:58.577Z,50.95
2016-05-12T07:22:58.720Z,50.95
2016-05-12T07:23:58.723Z,50.56
2016-05-12T07:24:58.554Z,50.27
2016-05-12T07:25:58.697Z,50.97
2016-05-12T07:26:58.699Z,50.1
2016-05-12T07:27:58.687Z,49.24
2016-05-12T07:28:58.674Z,46.77
2016-05-12T07:29:58.677Z,43.27
2016-05-12T07:30:58.664Z,38.71
2016-05-12T07:31:58.666Z,36.72
2016-05-12T07:32:58.653Z,35.5
2016-05-12T07:33:58.641Z,35.13
2016-05-12T07:34:58.487Z,33.04
2016-05-12T07:35:58.630Z,31.6
2016-05-12T07:36:58.633Z,30.94
2016-05-12T07:37:58.463Z,30.76
2016-05-12T07:38:58.623Z,29.02
2016-05-12T07:39:58.626Z,29.04
2016-05-12T07:40:58.613Z,28.76
2016-05-12T07:41:58.599Z,28.86
2016-05-12T07:42:58.602Z,26.82
2016-05-12T07:43:58.604Z,27.89
2016-05-12T07:44:58.436Z,27.42
2016-05-12T07:45:58.595Z,27.42
2016-05-12T07:46:58.598Z,26.94
2016-05-12T07:47:58.584Z,25.78
2016-05-12T07:48:58.587Z,25.79
2016-05-12T07:49:58.574Z,26.47
2016-05-12T07:50:58.592Z,25.79
2016-05-12T07:51:58.424Z,25.21
2016-05-12T07:52:58.582Z,24.54
2016-05-12T07:53:58.585Z,25.1
2016-05-12T07:54:58.572Z,24.63
2016-05-12T07:55:58.434Z,24.82
2016-05-12T07:56:58.578Z,24.54
2016-05-12T07:57:58.580Z,24.34
2016-05-12T07:58:58.583Z,24.63
2016-05-12T07:59:58.569Z,24.73
2016-05-12T08:00:58.588Z,24.55
2016-05-12T08:01:58.591Z,24.73
2016-05-12T08:02:58.578Z,24.94
2016-05-12T08:03:58.580Z,23.47
2016-05-12T08:04:58.568Z,24.55
2016-05-12T08:05:58.586Z,23.07
2016-05-12T08:06:58.574Z,23.07
2016-05-12T08:07:58.576Z,24.44
2016-05-12T08:08:58.578Z,25.51
2016-05-12T08:09:58.582Z,24.82
2016-05-12T08:10:58.585Z,24.73
2016-05-12T08:11:58.415Z,24.05
2016-05-12T08:12:58.574Z,22.99
2016-05-12T08:13:58.576Z,23.58
2016-05-12T08:14:58.579Z,23
2016-05-12T08:15:58.566Z,22.71
2016-05-12T08:16:58.818Z,23
2016-05-12T08:17:58.432Z,23.56
2016-05-12T08:18:58.590Z,23.77
2016-05-12T08:19:58.436Z,23.58
2016-05-12T08:20:58.596Z,23.1
2016-05-12T08:21:58.582Z,23
2016-05-12T08:22:58.584Z,23.38
2016-05-12T08:23:58.587Z,23.77
2016-05-12T08:24:58.590Z,22.79
2016-05-12T08:25:58.436Z,22.51
2016-05-12T08:26:58.595Z,22.71
2016-05-12T08:27:58.598Z,22.03
2016-05-12T08:28:58.600Z,21.75
2016-05-12T08:29:58.447Z,20.87
2016-05-12T08:30:58.700Z,20.89
2016-05-12T08:31:58.875Z,20.5
2016-05-12T08:32:58.456Z,21.28
2016-05-12T08:33:58.600Z,21.26
2016-05-12T08:34:58.602Z,21.67
2016-05-12T08:35:58.480Z,21.37
2016-05-12T08:36:58.622Z,20.41
2016-05-12T08:37:58.625Z,20.8
2016-05-12T08:38:58.613Z,20.22
2016-05-12T08:39:58.615Z,20.31
2016-05-12T08:40:58.836Z,19.64
2016-05-12T08:41:58.620Z,19.64
2016-05-12T08:42:58.623Z,20.12
2016-05-12T08:43:58.626Z,20.78
2016-05-12T08:44:58.644Z,22.24
2016-05-12T08:45:58.631Z,22.05
2016-05-12T08:46:58.884Z,20.9
2016-05-12T08:47:58.637Z,20.8
2016-05-12T08:48:58.639Z,20.51
2016-05-12T08:49:58.485Z,20.12
2016-05-12T08:50:58.645Z,19.84
2016-05-12T08:51:58.647Z,20.42
2016-05-12T08:52:58.650Z,20.21
2016-05-12T08:53:58.653Z,19.63
2016-05-12T08:54:58.655Z,22.17
2016-05-12T08:55:58.643Z,21.94
2016-05-12T08:56:58.645Z,24.46
2016-05-12T08:57:58.678Z,23.17
2016-05-12T08:58:58.651Z,23.84
2016-05-12T08:59:58.653Z,24.62
2016-05-12T09:00:58.655Z,24.23
2016-05-12T09:01:59.003Z,24.43
2016-05-12T09:02:58.661Z,25.1
2016-05-12T09:03:58.664Z,24.41
2016-05-12T09:04:58.666Z,25.48
2016-05-12T09:05:58.513Z,23.54
2016-05-12T09:06:58.656Z,23.63
2016-05-12T09:07:58.674Z,25.58
2016-05-12T09:08:58.818Z,24.9
2016-05-12T09:09:58.664Z,25.46
2016-05-12T09:10:58.667Z,25.84
2016-05-12T09:11:58.669Z,28.25
2016-05-12T09:12:58.657Z,28.34
2016-05-12T09:13:58.659Z,28.83
2016-05-12T09:14:58.663Z,28.74
2016-05-12T09:15:58.665Z,28.63
2016-05-12T09:16:58.668Z,27.66
2016-05-12T09:17:58.655Z,28.72
2016-05-12T09:18:58.657Z,28.63
2016-05-12T09:19:58.660Z,30.35
2016-05-12T09:20:58.663Z,29.97
2016-05-12T09:21:58.665Z,29.97
2016-05-12T09:22:58.668Z,29.19
2016-05-12T09:23:58.655Z,28.72
2016-05-12T09:24:58.658Z,27.73
2016-05-12T09:25:59.692Z,27.93
2016-05-12T09:26:58.647Z,28.61
2016-05-12T09:27:58.650Z,28.8
2016-05-12T09:28:58.637Z,28.32
2016-05-12T09:29:58.656Z,28.8
2016-05-12T09:30:58.486Z,28.5
2016-05-12T09:31:59.395Z,28.98
2016-05-12T09:32:58.633Z,30.34
2016-05-12T09:33:58.635Z,28.11
2016-05-12T09:34:58.622Z,28.97
2016-05-12T09:35:58.844Z,31.01
2016-05-12T09:36:58.769Z,29.95
2016-05-12T09:37:58.646Z,30.13
2016-05-12T09:38:58.461Z,28.87
2016-05-12T09:39:58.620Z,30.02
2016-05-12T09:40:58.622Z,30.41
2016-05-12T09:41:58.610Z,31.09
2016-05-12T09:42:58.612Z,30.99
2016-05-12T09:43:58.459Z,31.49
2016-05-12T09:44:58.602Z,31.59
2016-05-12T09:45:58.885Z,28.77
2016-05-12T09:46:58.608Z,29.94
2016-05-12T09:47:58.595Z,30.04
2016-05-12T09:48:58.598Z,28.98
2016-05-12T09:49:58.601Z,28.2
2016-05-12T09:50:58.587Z,29.76
2016-05-12T09:51:58.590Z,29.74
2016-05-12T09:52:58.592Z,27.91
2016-05-12T09:53:58.595Z,30.23
2016-05-12T09:55:01.473Z,30.23
2016-05-12T09:55:58.429Z,30.23
2016-05-12T09:56:58.572Z,28.68
2016-05-12T09:57:58.418Z,27.91
2016-05-12T09:58:58.561Z,28.19
2016-05-12T09:59:58.408Z,27.32
2016-05-12T10:00:58.551Z,28.87
2016-05-12T10:01:58.569Z,28.77
2016-05-12T10:02:58.557Z,30.23
2016-05-12T10:03:58.545Z,28.97
2016-05-12T10:04:58.547Z,27.51
2016-05-12T10:05:58.534Z,28.77
2016-05-12T10:06:58.536Z,28.97
2016-05-12T10:07:58.383Z,29.53
2016-05-12T10:08:58.527Z,31.18
2016-05-12T10:09:58.529Z,30.13
2016-05-12T10:10:58.532Z,29.73
2016-05-12T10:11:58.534Z,30.13
2016-05-12T10:12:58.521Z,28
2016-05-12T10:13:58.508Z,29.36
2016-05-12T10:14:58.510Z,29.55
2016-05-12T10:15:58.357Z,28.49
2016-05-12T10:16:58.923Z,29.06
2016-05-12T10:17:58.504Z,28.77
2016-05-12T10:18:58.507Z,28.5
2016-05-12T10:19:58.493Z,29.47
2016-05-12T10:20:58.496Z,27.83
2016-05-12T10:21:58.498Z,28.13
2016-05-12T10:22:58.502Z,26.48
2016-05-12T10:23:58.488Z,26.96
2016-05-12T10:24:58.507Z,26.57
2016-05-12T10:25:58.493Z,26.39
2016-05-12T10:26:58.496Z,24.45
2016-05-12T10:27:58.484Z,23.3
2016-05-12T10:28:58.486Z,24.27
2016-05-12T10:29:58.489Z,24.27
2016-05-12T10:30:58.491Z,22.93
2016-05-12T10:31:58.494Z,22.85
2016-05-12T10:32:58.498Z,22.08
2016-05-12T10:33:58.499Z,21.97
2016-05-12T10:34:58.502Z,23.52
2016-05-12T10:35:58.505Z,22.86
2016-05-12T10:36:58.508Z,23.25
2016-05-12T10:37:58.495Z,22.97
2016-05-12T10:38:58.497Z,22.02
2016-05-12T10:39:58.500Z,23.27
2016-05-12T10:40:59.112Z,23.75
2016-05-12T10:41:58.521Z,20.65
2016-05-12T10:42:58.508Z,21.12
2016-05-12T10:43:58.511Z,21.42
2016-05-12T10:44:58.373Z,24.51
2016-05-12T10:45:58.532Z,23.17
2016-05-12T10:46:58.535Z,22.69
2016-05-12T10:47:58.538Z,23.38
2016-05-12T10:48:58.540Z,22.41
2016-05-12T10:49:58.542Z,22.71
2016-05-12T10:50:58.546Z,21.73
2016-05-12T10:51:58.549Z,20.95
2016-05-12T10:52:58.551Z,21.82
2016-05-12T10:53:58.554Z,20.95
2016-05-12T10:54:58.556Z,21.83
2016-05-12T10:55:58.559Z,20.48
2016-05-12T10:56:58.562Z,19.68
2016-05-12T10:57:58.565Z,21.45
2016-05-12T10:58:58.567Z,20.94
2016-05-12T10:59:58.569Z,22.03
2016-05-12T11:00:58.572Z,21.84
2016-05-12T11:01:58.607Z,20.39
2016-05-12T11:02:58.577Z,20.39
2016-05-12T11:03:58.611Z,19.6
2016-05-12T11:04:58.583Z,20.97
2016-05-12T11:05:58.601Z,21.07
2016-05-12T11:06:58.604Z,20.69
2016-05-12T11:07:58.607Z,18.76
2016-05-12T11:08:58.608Z,21.1
2016-05-12T11:09:58.612Z,18.57
2016-05-12T11:10:58.615Z,19.94
2016-05-12T11:11:58.617Z,19.83
2016-05-12T11:12:58.620Z,18.95
2016-05-12T11:13:58.638Z,20.72
2016-05-12T11:14:58.641Z,18.47
2016-05-12T11:15:58.628Z,20.02
2016-05-12T11:16:58.646Z,20.59
2016-05-12T11:17:58.649Z,19.9
2016-05-12T11:18:58.480Z,20.28
2016-05-12T11:19:58.638Z,21.94
2016-05-12T11:20:58.657Z,20.96
2016-05-12T11:21:58.660Z,22.71
2016-05-12T11:22:58.662Z,21.44
2016-05-12T11:23:58.665Z,22.72
2016-05-12T11:24:58.668Z,22.91
2016-05-12T11:25:58.671Z,21.95
2016-05-12T11:26:58.689Z,23.12
2016-05-12T11:27:58.676Z,22.63
2016-05-12T11:28:58.679Z,22.84
2016-05-12T11:29:58.682Z,22.53
2016-05-12T11:30:58.684Z,23.01
2016-05-12T11:31:58.702Z,23.99
2016-05-12T11:32:58.690Z,22.5
2016-05-12T11:33:58.692Z,24.76
2016-05-12T11:34:58.694Z,24.57
2016-05-12T11:35:58.761Z,23.02
2016-05-12T11:36:58.700Z,23.02
2016-05-12T11:37:58.703Z,22.83
2016-05-12T11:38:58.721Z,22.34
2016-05-12T11:39:58.709Z,22.94
2016-05-12T11:40:58.727Z,22.55
2016-05-12T11:41:58.729Z,23.11
2016-05-12T11:42:58.717Z,24.16
2016-05-12T11:43:58.578Z,25.13
2016-05-12T11:44:58.738Z,25.21
2016-05-12T11:45:58.725Z,25.21
2016-05-12T11:46:58.743Z,25.1
2016-05-12T11:47:58.730Z,25.7
2016-05-12T11:48:58.732Z,25.51
2016-05-12T11:49:58.736Z,24.55
2016-05-12T11:50:58.754Z,25.03
2016-05-12T11:51:58.756Z,24.83
2016-05-12T11:52:58.759Z,24.65
2016-05-12T11:53:58.762Z,23.49
2016-05-12T11:54:58.765Z,23
2016-05-12T11:55:58.751Z,21.84
2016-05-12T11:56:58.770Z,23.01
2016-05-12T11:57:58.804Z,20.48
2016-05-12T11:58:58.759Z,21.67
2016-05-12T11:59:58.778Z,22.17
2016-05-12T12:00:58.624Z,21.3
2016-05-12T12:01:59.127Z,21.48
2016-05-12T12:02:58.787Z,22.84
2016-05-12T12:03:58.789Z,23.89
2016-05-12T12:04:58.791Z,24.07
2016-05-12T12:05:58.794Z,24.06
2016-05-12T12:06:58.797Z,25.14
2016-05-12T12:07:58.642Z,24.85
2016-05-12T12:08:58.803Z,24.27
2016-05-12T12:09:58.648Z,24.56
2016-05-12T12:10:59.010Z,24.57
2016-05-12T12:11:58.810Z,24.39
2016-05-12T12:12:58.860Z,24.3
2016-05-12T12:13:58.815Z,23.24
2016-05-12T12:14:58.661Z,23.25
2016-05-12T12:15:58.836Z,22.86
2016-05-12T12:16:58.667Z,22.37
2016-05-12T12:17:58.842Z,20.82
2016-05-12T12:18:58.829Z,20.92
2016-05-12T12:19:58.847Z,20.53
2016-05-12T12:20:58.834Z,19.56
2016-05-12T12:21:58.853Z,20.72
2016-05-12T12:22:58.855Z,21.3
2016-05-12T12:23:58.874Z,20.31
2016-05-12T12:24:58.860Z,21.49
2016-05-12T12:25:58.863Z,21.69
2016-05-12T12:26:59.085Z,22.37
2016-05-12T12:27:58.884Z,23.94
2016-05-12T12:28:58.871Z,21.21
2016-05-12T12:29:58.889Z,21.32
2016-05-12T12:30:58.892Z,20.45
2016-05-12T12:31:58.990Z,21.51
2016-05-12T12:32:58.898Z,20.93
2016-05-12T12:33:58.744Z,23.08
2016-05-12T12:34:58.903Z,22.21
2016-05-12T12:35:58.750Z,22.51
2016-05-12T12:36:58.753Z,21.23
2016-05-12T12:37:58.912Z,21.52
2016-05-12T12:38:58.945Z,21.03
2016-05-12T12:39:58.933Z,21.04
2016-05-12T12:40:58.936Z,20.76
2016-05-12T12:41:58.938Z,21.06
2016-05-12T12:42:58.784Z,20.76
2016-05-12T12:43:58.786Z,20.07
2016-05-12T12:44:58.946Z,19.01
2016-05-12T12:45:58.949Z,21.14
2016-05-12T12:46:58.997Z,20.66
2016-05-12T12:47:58.954Z,19
2016-05-12T12:48:58.971Z,18.99
2016-05-12T12:49:58.975Z,21.8
2016-05-12T12:50:58.977Z,21.71
2016-05-12T12:51:58.980Z,21.61
2016-05-12T12:52:58.983Z,21.21
2016-05-12T12:53:58.985Z,22.56
2016-05-12T12:54:58.988Z,22.17